Time;durP1;ratioP1;P1;durP2;ratioP2;P2;SDS_P1;SDS_P2;PMS_P1;PMS_P2;Temp;Humidity;BMP_temperature;BMP_pressure;BME280_temperature;BME280_humidity;BME280_pressure;Samples;Min_cycle;Max_cycle;Signal;HPM_P1;HPM_P2
2022/07/14 00:03:31;;;;;;;9.98;9.68;;;22.90;99.90;;;;;;6323270;22;20232;-84
2022/07/14 00:06:00;;;;;;;9.93;9.63;;;22.80;99.90;;;;;;6326248;22;20200;-84
2022/07/14 00:08:30;;;;;;;9.95;9.65;;;22.80;99.90;;;;;;6323647;22;20197;-83
2022/07/14 00:10:59;;;;;;;10.00;9.70;;;22.80;99.90;;;;;;6324008;22;20233;-83
2022/07/14 00:13:28;;;;;;;9.77;9.48;;;22.70;99.90;;;;;;6324127;22;20682;-84
2022/07/14 00:16:00;;;;;;;10.02;9.73;;;22.70;99.90;;;;;;6323043;22;20673;-84
2022/07/14 00:18:27;;;;;;;9.85;9.55;;;22.70;99.90;;;;;;6322574;22;20209;-83
2022/07/14 00:20:56;;;;;;;10.02;9.73;;;22.60;99.90;;;;;;6323344;22;20200;-84
2022/07/14 00:23:26;;;;;;;10.00;9.70;;;22.70;99.90;;;;;;6323037;22;20197;-83
2022/07/14 00:25:55;;;;;;;9.90;9.60;;;22.60;99.90;;;;;;6323707;22;20185;-83
2022/07/14 00:28:24;;;;;;;9.93;9.63;;;22.60;99.90;;;;;;6323029;22;20248;-83
2022/07/14 00:30:54;;;;;;;9.75;9.45;;;22.40;99.90;;;;;;6322689;22;20208;-83
2022/07/14 00:33:33;;;;;;;9.68;9.38;;;22.40;99.90;;;;;;6323713;22;20252;-84
2022/07/14 00:36:01;;;;;;;9.82;9.52;;;22.30;99.90;;;;;;6323724;22;20281;-83
2022/07/14 00:38:30;;;;;;;10.00;9.70;;;22.30;99.90;;;;;;6322786;22;20213;-78
2022/07/14 00:40:58;;;;;;;9.73;9.43;;;22.20;99.90;;;;;;6332555;22;20193;-77
2022/07/14 00:43:26;;;;;;;9.63;9.32;;;22.20;99.90;;;;;;6334189;22;20189;-78
2022/07/14 00:45:54;;;;;;;9.90;9.60;;;22.20;99.90;;;;;;6331747;22;20189;-78
2022/07/14 00:48:24;;;;;;;9.90;9.60;;;22.20;99.90;;;;;;6330110;22;20200;-79
2022/07/14 00:50:52;;;;;;;10.00;9.70;;;22.20;99.90;;;;;;6329799;22;20200;-79
2022/07/14 00:53:20;;;;;;;9.98;9.68;;;22.10;99.90;;;;;;6330433;22;20196;-79
2022/07/14 00:55:48;;;;;;;9.70;9.40;;;22.10;99.90;;;;;;6329276;22;20209;-79
2022/07/14 00:58:17;;;;;;;9.90;9.60;;;22.10;99.90;;;;;;6329077;22;20201;-78
2022/07/14 01:00:45;;;;;;;9.70;9.40;;;22.10;99.90;;;;;;6328222;22;20197;-80
2022/07/14 01:03:13;;;;;;;9.60;9.30;;;22.00;99.90;;;;;;6329120;22;20193;-78
2022/07/14 01:05:46;;;;;;;9.60;9.30;;;21.90;99.90;;;;;;6330871;22;20204;-78
2022/07/14 01:08:17;;;;;;;9.80;9.50;;;21.90;99.90;;;;;;6329730;22;20204;-78
2022/07/14 01:10:46;;;;;;;9.73;9.43;;;21.80;99.90;;;;;;6327383;22;20189;-78
2022/07/14 01:13:14;;;;;;;9.70;9.40;;;21.80;99.90;;;;;;6326307;22;20263;-78
2022/07/14 01:15:42;;;;;;;9.60;9.30;;;21.80;99.90;;;;;;6326842;22;20236;-78
2022/07/14 01:18:10;;;;;;;9.80;9.50;;;21.70;99.90;;;;;;6327452;22;20200;-78
2022/07/14 01:20:38;;;;;;;9.50;9.20;;;21.70;99.90;;;;;;6327771;22;20208;-78
2022/07/14 01:23:08;;;;;;;9.73;9.43;;;21.60;99.90;;;;;;6326873;22;20204;-79
2022/07/14 01:25:36;;;;;;;9.73;9.43;;;21.60;99.90;;;;;;6325900;22;20211;-78
2022/07/14 01:28:04;;;;;;;9.90;9.60;;;21.60;99.90;;;;;;6325999;22;20259;-78
2022/07/14 01:30:33;;;;;;;9.73;9.43;;;21.50;99.90;;;;;;6326731;22;20211;-78
2022/07/14 01:33:01;;;;;;;9.90;9.60;;;21.50;99.90;;;;;;6326343;22;20219;-78
2022/07/14 01:35:29;;;;;;;9.43;9.13;;;21.50;99.90;;;;;;6325825;22;20185;-78
2022/07/14 01:37:57;;;;;;;9.73;9.43;;;21.50;99.90;;;;;;6325178;22;20207;-78
2022/07/14 01:40:27;;;;;;;9.90;9.60;;;21.50;99.90;;;;;;6326936;22;20256;-78
2022/07/14 01:42:55;;;;;;;9.88;9.57;;;21.50;99.90;;;;;;6327262;22;20189;-78
2022/07/14 01:45:24;;;;;;;9.80;9.50;;;21.40;99.90;;;;;;6326015;22;20197;-78
2022/07/14 01:47:52;;;;;;;9.68;9.38;;;21.40;99.90;;;;;;6326751;22;20236;-78
2022/07/14 01:50:20;;;;;;;9.68;9.38;;;21.40;99.90;;;;;;6325580;22;20193;-78
2022/07/14 01:52:48;;;;;;;9.60;9.30;;;21.30;99.90;;;;;;6325612;22;20284;-78
2022/07/14 01:55:17;;;;;;;9.60;9.30;;;21.30;99.90;;;;;;6327521;22;20603;-78
2022/07/14 01:57:47;;;;;;;9.57;9.27;;;21.30;99.90;;;;;;6328055;22;20197;-78
2022/07/14 02:00:16;;;;;;;9.82;9.52;;;21.20;99.90;;;;;;6328708;22;20185;-78
2022/07/14 02:02:44;;;;;;;9.50;9.20;;;21.20;99.90;;;;;;6327015;22;20226;-81
2022/07/14 02:05:13;;;;;;;9.48;9.18;;;21.20;99.90;;;;;;6325742;22;20248;-78
2022/07/14 02:07:42;;;;;;;9.70;9.40;;;21.20;99.90;;;;;;6326625;22;20235;-78
2022/07/14 02:13:00;;;;;;;10.00;9.70;;;21.20;99.90;;;;;;6288329;22;20193;-78
2022/07/14 02:15:28;;;;;;;9.85;9.55;;;21.20;99.90;;;;;;6328303;22;20208;-78
2022/07/14 02:17:56;;;;;;;9.85;9.55;;;21.10;99.90;;;;;;6328918;22;20215;-78
2022/07/14 02:20:25;;;;;;;9.98;9.68;;;21.10;99.90;;;;;;6329355;22;20247;-78
2022/07/14 02:22:53;;;;;;;9.70;9.40;;;21.10;99.90;;;;;;6329673;22;20262;-79
2022/07/14 02:25:21;;;;;;;9.68;9.38;;;21.10;99.90;;;;;;6332858;22;20193;-78
2022/07/14 02:27:49;;;;;;;9.90;9.60;;;21.10;99.90;;;;;;6334180;22;20205;-78
2022/07/14 02:30:18;;;;;;;9.80;9.50;;;21.10;99.90;;;;;;6334235;22;20220;-79
2022/07/14 02:32:46;;;;;;;9.70;9.40;;;21.00;99.90;;;;;;6335394;22;20204;-78
2022/07/14 02:35:14;;;;;;;9.50;9.20;;;21.00;99.90;;;;;;6333353;22;20207;-76
2022/07/14 02:37:42;;;;;;;9.77;9.48;;;21.00;99.90;;;;;;6319171;22;20201;-78
2022/07/14 02:40:11;;;;;;;9.52;9.23;;;20.90;99.90;;;;;;6316268;22;20240;-78
2022/07/14 02:42:39;;;;;;;9.50;9.20;;;20.90;99.90;;;;;;6316030;22;20219;-78
2022/07/14 02:45:08;;;;;;;9.90;9.60;;;20.80;99.90;;;;;;6317035;22;20188;-78
2022/07/14 02:47:37;;;;;;;9.55;9.25;;;20.80;99.90;;;;;;6319465;22;20229;-78
2022/07/14 02:50:06;;;;;;;9.55;9.25;;;20.70;99.90;;;;;;6320902;22;20229;-78
2022/07/14 02:52:34;;;;;;;9.60;9.30;;;20.60;99.90;;;;;;6319454;22;20224;-78
2022/07/14 02:55:01;;;;;;;9.32;9.02;;;20.60;99.90;;;;;;6318120;22;20269;-78
2022/07/14 02:57:29;;;;;;;9.40;9.10;;;20.50;99.90;;;;;;6317806;22;20216;-78
2022/07/14 02:59:56;;;;;;;9.25;8.95;;;20.40;99.90;;;;;;6316925;22;20243;-78
2022/07/14 03:02:24;;;;;;;9.10;8.85;;;20.40;99.90;;;;;;6316979;22;20197;-78
2022/07/14 03:04:53;;;;;;;10.20;9.90;;;20.30;99.90;;;;;;6316323;22;20283;-78
2022/07/14 03:07:20;;;;;;;10.10;9.80;;;20.30;99.90;;;;;;6316696;22;20201;-78
2022/07/14 03:09:48;;;;;;;10.50;10.20;;;20.20;99.90;;;;;;6316673;22;20189;-78
2022/07/14 03:12:15;;;;;;;10.00;9.70;;;20.20;99.90;;;;;;6315753;22;20245;-78
2022/07/14 03:14:43;;;;;;;9.95;9.65;;;20.20;99.90;;;;;;6318306;22;20211;-77
2022/07/14 03:17:10;;;;;;;10.10;9.80;;;20.10;99.90;;;;;;6321077;22;20221;-78
2022/07/14 03:19:38;;;;;;;10.45;10.15;;;20.10;99.90;;;;;;6321872;22;20251;-78
2022/07/14 03:22:07;;;;;;;10.40;10.10;;;20.10;99.90;;;;;;6317174;22;20201;-78
2022/07/14 03:24:34;;;;;;;10.20;9.90;;;20.00;99.90;;;;;;6316413;22;20209;-78
2022/07/14 03:27:02;;;;;;;9.82;9.52;;;20.00;99.90;;;;;;6321244;22;21071;-78
2022/07/14 03:29:29;;;;;;;10.30;10.00;;;20.00;99.90;;;;;;6326798;22;20203;-78
2022/07/14 03:31:57;;;;;;;10.80;10.50;;;20.00;99.90;;;;;;6323409;22;20255;-78
2022/07/14 03:34:24;;;;;;;10.57;10.27;;;19.90;99.90;;;;;;6316583;22;20235;-77
2022/07/14 03:36:52;;;;;;;10.63;10.32;;;19.90;99.90;;;;;;6316334;22;20201;-78
2022/07/14 03:39:20;;;;;;;10.70;10.40;;;19.70;99.90;;;;;;6317140;22;20212;-78
2022/07/14 03:41:48;;;;;;;10.40;10.10;;;19.60;99.90;;;;;;6321460;22;20216;-78
2022/07/14 03:44:15;;;;;;;10.27;9.98;;;19.60;99.90;;;;;;6325085;22;20240;-77
2022/07/14 03:46:43;;;;;;;10.10;9.80;;;19.60;99.90;;;;;;6326960;22;20201;-78
2022/07/14 03:49:10;;;;;;;10.48;10.18;;;19.60;99.90;;;;;;6330166;22;20201;-77
2022/07/14 03:51:42;;;;;;;10.40;10.10;;;19.50;99.90;;;;;;6331566;22;20216;-77
2022/07/14 03:54:09;;;;;;;10.13;9.82;;;19.50;99.90;;;;;;6332222;22;20199;-77
2022/07/14 03:56:38;;;;;;;10.40;10.10;;;19.50;99.90;;;;;;6331732;22;20223;-77
2022/07/14 03:59:06;;;;;;;10.50;10.20;;;19.40;99.90;;;;;;6329281;22;20241;-78
2022/07/14 04:01:33;;;;;;;10.20;9.90;;;19.40;99.90;;;;;;6327176;22;20204;-77
2022/07/14 04:04:03;;;;;;;10.40;10.10;;;19.40;99.90;;;;;;6324121;22;20205;-78
2022/07/14 04:06:31;;;;;;;10.40;10.10;;;19.30;99.90;;;;;;6321596;22;20205;-78
2022/07/14 04:08:59;;;;;;;10.15;9.85;;;19.30;99.90;;;;;;6317853;22;20235;-78
2022/07/14 04:11:26;;;;;;;10.32;10.02;;;19.30;99.90;;;;;;6317829;22;20189;-78
2022/07/14 04:13:55;;;;;;;10.00;9.70;;;19.20;99.90;;;;;;6318303;22;20257;-78
2022/07/14 04:16:22;;;;;;;10.32;10.02;;;19.20;99.90;;;;;;6316440;22;20201;-78
2022/07/14 04:18:50;;;;;;;10.25;9.95;;;19.20;99.90;;;;;;6316151;22;20283;-77
2022/07/14 04:21:17;;;;;;;10.27;9.98;;;19.20;99.90;;;;;;6316236;22;20291;-78
2022/07/14 04:23:45;;;;;;;10.38;10.07;;;19.20;99.90;;;;;;6315644;22;20209;-79
2022/07/14 04:26:12;;;;;;;10.23;9.93;;;19.20;99.90;;;;;;6316413;22;20209;-78
2022/07/14 04:28:40;;;;;;;10.07;9.77;;;19.20;99.90;;;;;;6315528;22;20225;-78
2022/07/14 04:31:23;;;;;;;10.20;9.90;;;19.30;99.90;;;;;;6317697;22;20287;-77
2022/07/14 04:33:58;;;;;;;9.82;9.52;;;19.30;99.90;;;;;;6339825;22;20188;-78
2022/07/14 04:36:26;;;;;;;10.10;9.80;;;19.20;99.90;;;;;;6340238;22;20195;-78
2022/07/14 04:38:58;;;;;;;9.77;9.48;;;19.20;99.90;;;;;;6340644;22;20249;-78
2022/07/14 04:41:51;;;;;;;10.00;9.70;;;19.20;99.90;;;;;;6340287;22;20237;-79
2022/07/14 04:47:23;;;;;;;10.10;9.80;;;19.20;99.90;;;;;;6331371;22;20249;-78
2022/07/14 04:55:45;;;;;;;10.20;9.90;;;19.40;99.90;;;;;;6336260;22;20181;-78
2022/07/14 04:58:19;;;;;;;9.85;9.55;;;19.50;99.90;;;;;;6335619;22;20196;-79
2022/07/14 05:09:36;;;;;;;10.10;9.80;;;19.90;99.90;;;;;;6332506;22;20208;-78
2022/07/14 05:12:07;;;;;;;10.00;9.70;;;20.00;99.90;;;;;;6333674;22;20271;-78
2022/07/14 05:14:38;;;;;;;10.60;10.30;;;20.10;99.90;;;;;;6308515;22;20204;-78
2022/07/14 05:17:07;;;;;;;10.23;9.93;;;20.20;99.90;;;;;;6333519;22;20196;-77
2022/07/14 05:22:41;;;;;;;10.27;9.98;;;20.30;99.90;;;;;;6328077;22;20220;-79
2022/07/14 05:25:19;;;;;;;10.00;9.70;;;20.50;99.90;;;;;;6342326;22;20206;-78
2022/07/14 05:30:40;;;;;;;10.00;9.70;;;20.70;99.90;;;;;;6308106;22;20230;-79
2022/07/14 05:36:07;;;;;;;10.50;10.20;;;21.00;99.90;;;;;;6305705;22;20208;-78
2022/07/14 05:41:43;;;;;;;10.45;10.15;;;21.40;99.90;;;;;;6307138;22;20197;-79
2022/07/14 05:47:17;;;;;;;10.75;10.45;;;21.60;99.90;;;;;;6311409;22;20197;-78
2022/07/14 05:49:52;;;;;;;10.73;10.43;;;21.60;99.90;;;;;;6309882;22;20196;-78
2022/07/14 05:55:16;;;;;;;10.50;10.20;;;21.80;99.90;;;;;;6311927;22;20228;-79
2022/07/14 05:57:56;;;;;;;10.57;10.27;;;21.90;99.90;;;;;;6311085;22;20202;-78
2022/07/14 06:00:32;;;;;;;10.20;9.90;;;22.00;99.90;;;;;;6311638;22;20189;-79
2022/07/14 06:03:30;;;;;;;10.40;10.10;;;22.20;99.90;;;;;;6311962;22;20212;-78
2022/07/14 06:06:01;;;;;;;10.65;10.35;;;22.40;99.90;;;;;;6304550;22;20267;-78
2022/07/14 06:08:30;;;;;;;10.43;10.13;;;22.60;99.90;;;;;;6287512;22;20205;-78
2022/07/14 06:10:58;;;;;;;10.55;10.25;;;22.70;99.90;;;;;;6287335;22;20237;-78
2022/07/14 06:13:26;;;;;;;10.60;10.30;;;22.90;99.90;;;;;;6286381;22;20209;-78
2022/07/14 06:15:55;;;;;;;10.70;10.40;;;23.00;99.90;;;;;;6286217;22;20193;-78
2022/07/14 06:18:23;;;;;;;10.50;10.20;;;23.20;99.90;;;;;;6287215;22;20300;-78
2022/07/14 06:20:51;;;;;;;10.65;10.35;;;23.40;99.90;;;;;;6288187;22;20284;-78
2022/07/14 06:23:19;;;;;;;10.45;10.15;;;23.50;99.90;;;;;;6286452;22;20257;-78
2022/07/14 06:25:48;;;;;;;10.65;10.35;;;23.70;99.90;;;;;;6286192;22;20208;-78
2022/07/14 06:28:20;;;;;;;10.65;10.35;;;23.90;99.90;;;;;;6288018;22;20254;-83
2022/07/14 06:31:01;;;;;;;10.75;10.45;;;24.10;99.90;;;;;;6290742;22;20190;-79
2022/07/14 06:33:51;;;;;;;10.73;10.43;;;24.20;99.90;;;;;;6289812;22;20194;-80
2022/07/14 06:36:19;;;;;;;10.77;10.48;;;24.30;99.90;;;;;;6287112;22;20194;-80
2022/07/14 06:38:46;;;;;;;10.77;10.48;;;24.50;99.90;;;;;;6283971;22;20233;-84
2022/07/14 06:41:15;;;;;;;10.80;10.50;;;24.60;99.90;;;;;;6290022;22;20206;-84
2022/07/14 06:43:43;;;;;;;10.70;10.40;;;24.80;99.90;;;;;;6290402;22;20197;-83
2022/07/14 06:48:59;;;;;;;10.70;10.40;;;25.10;99.90;;;;;;6289251;22;20205;-85
2022/07/14 06:51:29;;;;;;;10.68;10.38;;;25.30;99.90;;;;;;6290789;22;20204;-83
2022/07/14 06:53:58;;;;;;;10.85;10.55;;;25.50;99.90;;;;;;6294754;22;20269;-85
2022/07/14 06:59:14;;;;;;;10.70;10.40;;;25.60;99.90;;;;;;6291276;22;20504;-84
2022/07/14 07:01:44;;;;;;;10.27;9.98;;;25.80;99.90;;;;;;6296934;22;20200;-85
2022/07/14 07:04:13;;;;;;;10.27;9.98;;;26.00;99.90;;;;;;6294714;22;20272;-84
2022/07/14 07:06:45;;;;;;;10.07;9.77;;;26.10;99.90;;;;;;6290733;22;20256;-85
2022/07/14 07:09:13;;;;;;;10.10;9.80;;;26.30;99.90;;;;;;6290344;22;20207;-83
2022/07/14 07:11:45;;;;;;;9.88;9.57;;;26.40;99.90;;;;;;6290753;22;20210;-83
2022/07/14 07:14:12;;;;;;;10.60;10.30;;;26.50;99.90;;;;;;6290242;22;20198;-85
2022/07/14 07:16:42;;;;;;;11.05;10.75;;;26.70;99.90;;;;;;6289680;22;20389;-81
2022/07/14 07:19:11;;;;;;;10.90;10.60;;;26.80;99.90;;;;;;6290811;22;20213;-81
2022/07/14 07:21:41;;;;;;;10.20;9.90;;;27.00;99.90;;;;;;6289972;22;20209;-82
2022/07/14 07:24:10;;;;;;;9.88;9.57;;;27.30;99.90;;;;;;6290153;22;20281;-82
2022/07/14 07:26:43;;;;;;;10.00;9.70;;;27.50;99.90;;;;;;6290668;22;20201;-83
2022/07/14 07:29:10;;;;;;;10.13;9.82;;;27.70;99.90;;;;;;6289856;22;20209;-82
2022/07/14 07:31:39;;;;;;;9.82;9.52;;;27.80;99.90;;;;;;6291428;22;20213;-82
2022/07/14 07:34:09;;;;;;;10.00;9.70;;;27.70;99.90;;;;;;6290567;22;20197;-83
2022/07/14 07:36:37;;;;;;;10.18;9.88;;;27.40;99.90;;;;;;6290933;22;20189;-82
2022/07/14 07:39:07;;;;;;;9.73;9.43;;;27.20;99.90;;;;;;6291284;22;20209;-83
2022/07/14 07:41:37;;;;;;;10.48;10.18;;;27.40;99.90;;;;;;6293492;22;20232;-83
2022/07/14 07:44:08;;;;;;;10.32;10.02;;;27.60;99.90;;;;;;6294209;22;20205;-85
2022/07/14 07:46:36;;;;;;;10.50;10.20;;;27.80;99.90;;;;;;6293408;22;20244;-85
2022/07/14 07:49:06;;;;;;;10.88;10.57;;;27.80;99.90;;;;;;6294190;22;20202;-85
2022/07/14 07:51:35;;;;;;;10.82;10.52;;;27.70;99.90;;;;;;6293749;22;20189;-85
2022/07/14 07:54:05;;;;;;;10.80;10.50;;;27.60;99.90;;;;;;6291754;22;20190;-86
2022/07/14 07:56:34;;;;;;;10.60;10.30;;;27.60;99.90;;;;;;6292928;22;20246;-86
2022/07/14 07:59:02;;;;;;;10.80;10.50;;;27.60;99.90;;;;;;6295649;22;20240;-86
2022/07/14 08:04:19;;;;;;;10.50;10.20;;;27.60;99.90;;;;;;6298357;22;20197;-86
2022/07/14 08:06:48;;;;;;;10.80;10.50;;;27.70;99.90;;;;;;6295544;22;20220;-86
2022/07/14 08:09:18;;;;;;;10.65;10.35;;;27.70;99.90;;;;;;6294272;22;20201;-86
2022/07/14 08:11:47;;;;;;;11.07;10.77;;;27.70;99.90;;;;;;6294213;22;20643;-85
2022/07/14 08:17:07;;;;;;;10.80;10.50;;;27.70;99.90;;;;;;6292332;22;20182;-87
2022/07/14 08:19:35;;;;;;;10.52;10.23;;;27.80;99.90;;;;;;6290658;22;20205;-85
2022/07/14 08:22:03;;;;;;;10.70;10.40;;;27.90;99.90;;;;;;6293459;22;20201;-86
2022/07/14 08:24:32;;;;;;;10.73;10.43;;;28.00;99.90;;;;;;6293139;22;20217;-85
2022/07/14 08:27:01;;;;;;;11.00;10.70;;;28.00;99.90;;;;;;6292837;22;20228;-86
2022/07/14 08:29:31;;;;;;;11.20;10.90;;;28.10;99.90;;;;;;6292219;22;20255;-85
2022/07/14 08:32:02;;;;;;;11.10;10.80;;;28.20;99.90;;;;;;6292619;22;20218;-86
2022/07/14 08:34:32;;;;;;;11.00;10.70;;;28.30;99.90;;;;;;6291997;22;20224;-85
2022/07/14 08:37:00;;;;;;;11.18;10.88;;;28.40;99.90;;;;;;6293301;22;20793;-82
2022/07/14 08:39:29;;;;;;;11.25;10.95;;;28.50;99.90;;;;;;6293136;22;20228;-83
2022/07/14 08:41:59;;;;;;;11.23;10.93;;;28.60;99.90;;;;;;6293282;22;20193;-83
2022/07/14 08:44:28;;;;;;;11.30;11.00;;;28.70;99.90;;;;;;6291934;22;20259;-83
2022/07/14 08:46:57;;;;;;;11.27;10.98;;;28.90;99.90;;;;;;6293653;22;20206;-83
2022/07/14 08:49:27;;;;;;;11.20;10.90;;;29.00;99.90;;;;;;6293171;22;20197;-83
2022/07/14 08:51:58;;;;;;;11.50;11.20;;;29.10;99.90;;;;;;6293508;22;20264;-83
2022/07/14 08:54:27;;;;;;;11.38;11.07;;;29.30;99.90;;;;;;6294153;22;20216;-84
2022/07/14 08:56:54;;;;;;;11.10;10.80;;;29.60;99.90;;;;;;6292367;22;20189;-83
2022/07/14 08:59:24;;;;;;;11.15;10.85;;;29.80;99.90;;;;;;6291697;22;20205;-84
2022/07/14 09:01:53;;;;;;;11.23;10.93;;;30.00;99.90;;;;;;6292424;22;20193;-84
2022/07/14 09:04:24;;;;;;;11.07;10.77;;;30.10;99.90;;;;;;6291669;22;20206;-83
2022/07/14 09:07:03;;;;;;;10.90;10.60;;;30.20;99.90;;;;;;6291290;22;20213;-82
2022/07/14 09:09:31;;;;;;;10.90;10.60;;;30.20;99.90;;;;;;6291431;22;20240;-83
2022/07/14 09:12:04;;;;;;;10.93;10.63;;;30.40;99.90;;;;;;6291701;22;20198;-83
2022/07/14 09:17:18;;;;;;;11.13;10.82;;;30.90;99.90;;;;;;6292114;22;20190;-83
2022/07/14 09:20:08;;;;;;;11.00;10.70;;;31.10;99.90;;;;;;6296999;22;20206;-84
2022/07/14 09:22:45;;;;;;;11.05;10.75;;;31.20;99.90;;;;;;6299617;22;20248;-82
2022/07/14 09:25:16;;;;;;;10.70;10.40;;;31.20;99.90;;;;;;6302498;22;20186;-87
2022/07/14 09:30:31;;;;;;;11.10;10.80;;;31.60;99.90;;;;;;6302578;22;20209;-85
2022/07/14 09:33:09;;;;;;;10.57;10.27;;;31.50;99.90;;;;;;6294918;22;20186;-84
2022/07/14 09:35:42;;;;;;;11.00;10.70;;;31.50;99.90;;;;;;6300518;22;20185;-83
2022/07/14 09:38:29;;;;;;;10.70;10.40;;;31.30;99.90;;;;;;6299300;22;20174;-85
2022/07/14 09:41:11;;;;;;;10.75;10.45;;;31.60;99.90;;;;;;6292506;22;20734;-83
2022/07/14 09:43:42;;;;;;;11.00;10.70;;;31.70;99.90;;;;;;6291921;22;20251;-82
2022/07/14 09:46:11;;;;;;;11.27;10.98;;;31.70;99.90;;;;;;6291284;22;20194;-83
2022/07/14 09:48:40;;;;;;;11.25;10.95;;;31.70;99.90;;;;;;6291578;22;20198;-84
2022/07/14 09:51:11;;;;;;;11.30;11.00;;;31.50;99.90;;;;;;6293202;22;20190;-82
2022/07/14 09:53:49;;;;;;;11.30;11.00;;;31.40;99.90;;;;;;6305134;22;20220;-84
2022/07/14 09:56:17;;;;;;;11.48;11.18;;;31.20;99.90;;;;;;6307137;22;20189;-84
2022/07/14 09:58:51;;;;;;;11.35;11.05;;;31.30;99.90;;;;;;6304718;22;20217;-84
2022/07/14 10:01:25;;;;;;;11.50;11.15;;;31.60;99.90;;;;;;6302057;22;20215;-83
2022/07/14 10:03:57;;;;;;;11.45;11.15;;;32.00;99.90;;;;;;6295481;22;20982;-85
2022/07/14 10:06:26;;;;;;;11.10;10.80;;;32.40;99.90;;;;;;6295439;22;20193;-83
2022/07/14 10:09:04;;;;;;;11.10;10.80;;;32.60;99.90;;;;;;6293410;22;20229;-83
2022/07/14 10:11:32;;;;;;;11.20;10.90;;;32.40;99.90;;;;;;6293139;22;20200;-83
2022/07/14 10:14:00;;;;;;;11.40;11.10;;;32.30;99.90;;;;;;6293157;22;20201;-83
2022/07/14 10:16:33;;;;;;;11.30;11.00;;;32.30;99.90;;;;;;6293950;22;20190;-84
2022/07/14 10:19:09;;;;;;;11.70;11.30;;;32.30;99.90;;;;;;6296525;22;20240;-81
2022/07/14 10:21:39;;;;;;;12.05;11.65;;;32.50;99.90;;;;;;6299858;22;20200;-80
2022/07/14 10:24:10;;;;;;;11.77;11.38;;;32.90;99.90;;;;;;6300444;22;20224;-80
2022/07/14 10:26:39;;;;;;;11.73;11.32;;;33.50;99.90;;;;;;6293334;22;20196;-79
2022/07/14 10:29:08;;;;;;;11.80;11.40;;;33.50;99.90;;;;;;6294775;22;20220;-82
2022/07/14 10:31:54;;;;;;;11.80;11.40;;;33.50;99.90;;;;;;6293796;22;20269;-83
2022/07/14 10:34:32;;;;;;;11.82;11.43;;;33.60;99.90;;;;;;6293473;22;20269;-84
2022/07/14 10:37:10;;;;;;;11.38;11.07;;;33.70;99.90;;;;;;6292299;22;20268;-86
2022/07/14 10:39:50;;;;;;;11.50;11.20;;;33.60;99.90;;;;;;6290824;22;20229;-84
2022/07/14 10:42:34;;;;;;;11.43;11.13;;;33.50;99.90;;;;;;6291141;22;20223;-82
2022/07/14 10:45:05;;;;;;;11.05;10.75;;;33.30;99.90;;;;;;6294138;22;20189;-85
2022/07/14 10:47:52;;;;;;;11.30;11.00;;;33.10;99.90;;;;;;6294027;22;20220;-84
2022/07/14 10:50:22;;;;;;;11.43;11.13;;;33.20;99.90;;;;;;6292797;22;20213;-82
2022/07/14 10:55:56;;;;;;;11.32;11.02;;;33.30;99.90;;;;;;6291226;22;20255;-86
2022/07/14 10:58:34;;;;;;;11.35;11.05;;;32.80;99.90;;;;;;6293761;22;20209;-84
2022/07/14 11:01:04;;;;;;;11.40;11.10;;;32.80;99.90;;;;;;6293013;22;20189;-85
2022/07/14 11:03:50;;;;;;;11.75;11.35;;;32.90;99.90;;;;;;6292291;22;20217;-84
2022/07/14 11:06:27;;;;;;;11.73;11.32;;;32.90;99.90;;;;;;6291327;22;20189;-84
2022/07/14 11:09:32;;;;;;;11.40;11.10;;;32.90;99.90;;;;;;6292644;22;20209;-85
2022/07/14 11:12:20;;;;;;;11.35;11.05;;;33.20;99.90;;;;;;6292595;22;20193;-84
2022/07/14 11:14:50;;;;;;;11.32;11.02;;;33.60;99.90;;;;;;6291419;22;20269;-87
2022/07/14 11:17:41;;;;;;;11.88;11.48;;;33.80;99.90;;;;;;6291608;22;20260;-87
2022/07/14 11:20:16;;;;;;;12.05;11.65;;;34.00;99.90;;;;;;6290979;22;20198;-86
2022/07/14 11:22:45;;;;;;;11.98;11.57;;;34.40;99.90;;;;;;6293660;22;20197;-84
2022/07/14 11:25:32;;;;;;;12.20;11.80;;;34.50;98.80;;;;;;6295668;22;20193;-84
2022/07/14 11:28:46;;;;;;;11.98;11.57;;;34.30;98.80;;;;;;6295156;22;20193;-84
2022/07/14 11:31:16;;;;;;;11.90;11.50;;;34.30;98.80;;;;;;6295087;22;20201;-84
2022/07/14 11:36:40;;;;;;;11.30;11.00;;;34.40;98.20;;;;;;6293383;22;20178;-84
2022/07/14 11:39:29;;;;;;;11.32;11.02;;;34.40;98.50;;;;;;6294394;22;20244;-83
2022/07/14 11:42:07;;;;;;;11.10;10.80;;;34.60;98.20;;;;;;6293295;22;20208;-82
2022/07/14 11:45:12;;;;;;;11.18;10.88;;;34.60;97.40;;;;;;6293198;22;20616;-84
2022/07/14 11:47:41;;;;;;;11.63;11.23;;;34.90;98.20;;;;;;6292903;22;20189;-82
2022/07/14 11:50:09;;;;;;;11.80;11.40;;;35.30;97.80;;;;;;6293217;22;20213;-83
2022/07/14 11:52:40;;;;;;;11.65;11.25;;;35.50;97.30;;;;;;6292746;22;20193;-82
2022/07/14 11:55:10;;;;;;;11.73;11.32;;;35.50;96.00;;;;;;6293963;22;20190;-82
2022/07/14 11:57:38;;;;;;;11.63;11.23;;;35.00;96.10;;;;;;6295025;22;20854;-83
2022/07/14 12:00:17;;;;;;;11.50;11.10;;;34.50;96.20;;;;;;6295522;22;20205;-82
2022/07/14 12:02:54;;;;;;;11.60;11.20;;;34.20;96.70;;;;;;6295416;22;20305;-83
2022/07/14 12:05:23;;;;;;;11.43;11.07;;;34.00;96.90;;;;;;6296979;22;20268;-83
2022/07/14 12:07:54;;;;;;;11.80;11.40;;;33.70;97.40;;;;;;6297503;22;20224;-82
2022/07/14 12:10:40;;;;;;;11.93;11.52;;;33.80;97.50;;;;;;6297446;22;20193;-83
2022/07/14 12:13:09;;;;;;;11.13;10.82;;;34.20;97.00;;;;;;6296468;22;20198;-82
2022/07/14 12:15:41;;;;;;;11.38;11.07;;;34.60;96.40;;;;;;6294658;22;20216;-83
2022/07/14 12:18:09;;;;;;;11.35;11.05;;;34.80;95.90;;;;;;6298188;22;20190;-83
2022/07/14 12:20:46;;;;;;;11.05;10.75;;;34.80;96.00;;;;;;6296793;22;20185;-83
2022/07/14 12:23:17;;;;;;;11.20;10.90;;;34.70;96.00;;;;;;6296645;22;20264;-86
2022/07/14 12:25:47;;;;;;;11.30;11.00;;;34.50;96.00;;;;;;6296497;22;20213;-84
2022/07/14 12:28:17;;;;;;;11.70;11.30;;;34.50;95.80;;;;;;6296348;22;20245;-84
2022/07/14 12:30:53;;;;;;;11.60;11.20;;;34.30;95.70;;;;;;6297562;22;20236;-84
2022/07/14 12:33:24;;;;;;;11.80;11.40;;;34.40;95.30;;;;;;6296739;22;20196;-82
2022/07/14 12:35:54;;;;;;;11.95;11.55;;;34.50;94.90;;;;;;6301717;22;20189;-82
2022/07/14 12:38:23;;;;;;;11.98;11.57;;;34.80;95.00;;;;;;6299124;22;20205;-82
2022/07/14 12:40:57;;;;;;;11.82;11.43;;;35.30;93.80;;;;;;6290568;22;20213;-84
2022/07/14 12:43:25;;;;;;;11.60;11.20;;;35.50;93.90;;;;;;6286539;22;20189;-84
2022/07/14 12:46:03;;;;;;;11.88;11.48;;;35.40;93.80;;;;;;6286549;22;20225;-82
2022/07/14 12:48:36;;;;;;;11.63;11.23;;;35.20;93.80;;;;;;6287112;22;20224;-85
2022/07/14 12:51:31;;;;;;;11.75;11.35;;;35.20;93.90;;;;;;6286134;22;20205;-83
2022/07/14 12:54:10;;;;;;;11.77;11.38;;;35.50;93.10;;;;;;6287239;22;20186;-84
2022/07/14 12:56:47;;;;;;;11.52;11.18;;;35.60;93.70;;;;;;6287475;22;20189;-84
2022/07/14 12:59:20;;;;;;;11.60;11.20;;;34.80;94.30;;;;;;6286704;22;20197;-85
2022/07/14 13:01:59;;;;;;;11.77;11.38;;;34.50;94.90;;;;;;6286369;22;20214;-83
2022/07/14 13:04:37;;;;;;;11.60;11.20;;;34.90;94.70;;;;;;6286966;22;20294;-85
2022/07/14 13:07:24;;;;;;;11.50;11.20;;;35.20;95.30;;;;;;6286433;22;20403;-85
2022/07/14 13:10:17;;;;;;;11.20;10.90;;;35.40;93.80;;;;;;6285905;22;20212;-84
2022/07/14 13:12:48;;;;;;;11.05;10.75;;;34.80;92.80;;;;;;6285920;22;20643;-85
2022/07/14 13:15:21;;;;;;;11.00;10.70;;;34.50;93.80;;;;;;6285907;22;20197;-85
2022/07/14 13:18:03;;;;;;;10.93;10.63;;;34.30;94.30;;;;;;6286240;22;20293;-86
2022/07/14 13:20:52;;;;;;;11.20;10.90;;;34.40;95.40;;;;;;6286195;22;20209;-86
2022/07/14 13:23:26;;;;;;;11.18;10.88;;;34.30;94.80;;;;;;6286553;22;20194;-86
2022/07/14 13:26:01;;;;;;;11.40;11.00;;;34.10;95.30;;;;;;6289243;22;20186;-83
2022/07/14 13:28:39;;;;;;;11.52;11.13;;;33.50;95.20;;;;;;6307228;22;20184;-86
2022/07/14 13:31:08;;;;;;;11.60;11.20;;;33.30;95.60;;;;;;6302884;22;20753;-86
2022/07/14 13:33:48;;;;;;;11.40;11.10;;;33.30;94.90;;;;;;6291849;22;20216;-85
2022/07/14 13:36:17;;;;;;;11.45;11.05;;;33.70;95.20;;;;;;6289861;22;20189;-85
2022/07/14 13:38:46;;;;;;;11.10;10.80;;;34.30;95.70;;;;;;6296581;22;20269;-84
2022/07/14 13:41:16;;;;;;;11.10;10.80;;;34.50;95.50;;;;;;6303650;22;20213;-86
2022/07/14 13:43:44;;;;;;;11.60;11.20;;;34.40;95.60;;;;;;6306853;22;20197;-86
2022/07/14 13:46:14;;;;;;;11.50;11.10;;;34.10;95.90;;;;;;6289606;22;20213;-86
2022/07/14 13:48:46;;;;;;;11.70;11.30;;;34.20;96.00;;;;;;6287201;22;20276;-86
2022/07/14 13:53:59;;;;;;;11.32;11.02;;;34.50;95.70;;;;;;6286648;22;20203;-85
2022/07/14 13:56:28;;;;;;;11.18;10.88;;;33.90;95.60;;;;;;6286372;22;20268;-85
2022/07/14 13:58:58;;;;;;;11.50;11.10;;;33.20;95.80;;;;;;6289907;22;20205;-86
2022/07/14 14:01:27;;;;;;;11.30;11.00;;;33.00;96.30;;;;;;6287962;22;20216;-85